Saturday, January 20, 2018, 3:07 PM GMT
Back to Local

CYOY, Valcartier Airport

Location: , , Canada Lat: 46.9
Local Time: 3:07 PM GMT (15:07 GMT) Lon: -71.5
Time Zone: GMT Elev: 551 ft

Show me the last for .
Show Coded

Time T Td Feel RH Dir Speed Gust Alt SLP Vis Weather Sky Remarks
2018-01-20 15:04 32 27 24 80 240° 9 - 29.39 - 9 OVC026 None
2018-01-20 14:37 32 27 21 80 250° 9 17 29.40 - 9 OVC024 None
2018-01-20 14:00 30 25 23 80 250° 8 - 29.38 29.41 9 OVC027 None
2018-01-20 13:35 30 25 18 80 250° 8 18 29.38 - 5 FEW021 OVC027 None
2018-01-20 13:21 30 25 22 80 250° 9 - 29.38 - 5 OVC024 None
2018-01-20 13:14 30 25 22 80 240° 9 - 29.37 - 5 FEW022 OVC027 None
2018-01-20 13:02 30 25 21 80 240° 12 - 29.37 - 6 -SN FEW022 OVC027 None
2018-01-20 13:00 30 25 22 80 240° 9 - 29.37 29.40 7 -SN OVC024 None
2018-01-20 12:58 30 25 22 80 240° 9 - 29.37 - 8 -SN OVC024 None
2018-01-20 12:05 30 25 18 80 250° 9 18 29.37 - 9 OVC024 None
2018-01-20 12:00 30 25 18 80 250° 12 17 29.36 29.39 9 OVC026 None
2018-01-20 11:00 28 25 23 86 270° 5 - 29.38 29.41 5 OVC030 None
2018-01-20 10:15 27 25 21 92 230° 5 - 29.37 - 4 SCT007 OVC028 None
2018-01-20 10:00 27 25 - 92 230° 2 - 29.36 29.39 4 BKN007 OVC030 None
2018-01-20 09:34 27 25 20 92 240° 6 - 29.38 - 3 OVC006 None
2018-01-20 09:30 27 25 20 92 240° 6 - 29.39 - 2 OVC006 None
2018-01-20 09:20 27 25 21 92 230° 5 - 29.39 - 1 -SN OVC006 None
2018-01-20 09:08 27 23 23 86 220° 3 - 29.40 - 0 -SN OVC006 None
2018-01-20 09:06 27 23 23 86 210° 3 - 29.40 - 0 -RA OVC006 None
2018-01-20 09:04 27 23 - 86 190° 2 - 29.40 - 0 -RA VV003 None
2018-01-20 09:00 27 23 23 86 210° 3 - 29.41 29.44 0 -RA VV003 Pressure falling rapidly
2018-01-20 08:52 27 23 - 86 220° 2 - 29.43 - 0 -RA VV003 None
2018-01-20 08:15 25 23 - 92 110° 2 - 29.44 - 0 -SN VV003 None
2018-01-20 08:08 25 23 - 92 - Calm - 29.45 - 0 -SN VV004 None
2018-01-20 08:03 25 23 - 92 - Calm - 29.47 - 0 -SN VV004 None
2018-01-20 08:02 25 23 - 92 - Calm - 29.47 - 0 -SN VV004 None
2018-01-20 08:00 27 23 - 86 - Calm - 29.47 29.50 1 -SN VV004 None
2018-01-20 07:37 27 23 - 86 - Calm - 29.50 - 5 OVC026 None
2018-01-20 07:25 27 23 - 86 250° 2 - 29.51 - 5 OVC016 None
2018-01-20 07:14 27 23 - 86 240° 2 - 29.52 - 3 -SN OVC016 None
2018-01-20 07:03 27 23 23 86 240° 3 - 29.52 - 1 -SN OVC016 None
2018-01-20 07:00 27 23 - 86 250° 2 - 29.52 29.55 1 -SN OVC016 None
2018-01-20 06:59 27 23 - 86 230° 2 - 29.52 - 2 -SN OVC016 None
2018-01-20 06:53 27 23 - 86 250° 2 - 29.53 - 5 -SN FEW016 OVC019 None
2018-01-20 06:36 27 23 21 86 220° 5 - 29.52 - 5 FEW008 OVC019 None
2018-01-20 06:35 27 23 23 86 210° 3 - 29.52 - 4 SCT011 None
2018-01-20 06:22 27 23 21 86 220° 5 - 29.53 - 4 BKN008 None
2018-01-20 06:07 27 23 21 86 220° 5 - 29.53 - 3 -SN OVC008 None
2018-01-20 06:04 27 23 20 86 230° 6 - 29.53 - 3 OVC008 None
2018-01-20 06:00 27 23 21 86 220° 5 - 29.53 29.56 2 -SN OVC008 None
2018-01-20 05:58 27 23 23 86 220° 3 - 29.52 - 1 -SN OVC008 None
2018-01-20 05:49 27 23 21 86 210° 5 - 29.53 - 0 -SN OVC009 OVC026 None
2018-01-20 05:26 27 23 23 86 210° 3 - 29.56 - 1 -SN OVC009 None
2018-01-20 05:25 27 23 21 86 220° 5 - 29.56 - 1 -SN OVC010 None
2018-01-20 05:14 27 23 20 86 230° 6 - 29.58 - 1 -SN OVC009 None
2018-01-20 05:00 27 23 19 86 220° 7 - 29.58 29.61 2 -SN OVC007 None
2018-01-20 04:56 27 23 21 86 220° 5 - 29.58 - 2 -SN OVC007 None
2018-01-20 04:49 27 23 21 86 210° 5 - 29.58 - 3 -SN OVC007 None
2018-01-20 04:47 27 23 21 86 230° 5 - 29.58 - 3 OVC007 None
2018-01-20 04:24 27 23 20 86 210° 6 - 29.60 - 1 OVC005 None
2018-01-20 04:04 27 23 18 86 240° 8 - 29.62 - 1 OVC004 None
2018-01-20 04:00 27 23 21 86 220° 5 - 29.62 29.65 1 OVC003 None
2018-01-20 03:09 25 23 19 92 220° 5 - 29.65 - 1 OVC003 None
2018-01-20 03:00 25 23 20 92 240° 3 - 29.66 29.70 1 OVC004 None
2018-01-20 02:56 25 23 20 92 240° 3 - 29.67 - 1 OVC004 None
2018-01-20 02:39 25 23 19 92 240° 5 - 29.67 - 1 OVC005 None
2018-01-20 02:27 25 21 19 85 240° 5 - 29.67 - 1 OVC005 None
2018-01-20 02:26 25 21 18 85 230° 6 - 29.67 - 1 -SN OVC005 None
2018-01-20 02:23 25 23 18 92 240° 6 - 29.67 - 1 -SN OVC005 None
2018-01-20 02:11 25 21 18 85 220° 6 - 29.67 - 1 -SN OVC004 None
2018-01-20 02:04 25 21 17 85 210° 7 - 29.67 - 1 -SN OVC005 None
2018-01-20 02:00 25 21 18 85 210° 6 - 29.67 29.70 1 -SN OVC005 None
2018-01-20 01:44 25 23 16 92 230° 8 - 29.69 - 1 OVC005 None
2018-01-20 01:42 25 21 18 85 220° 6 - 29.69 - 1 OVC005 None
2018-01-20 01:16 25 21 19 85 220° 5 - 29.70 - 1 OVC004 None
2018-01-20 01:05 25 21 19 85 230° 5 - 29.71 - 1 OVC003 None
2018-01-20 01:04 25 21 19 85 230° 5 - 29.71 - 1 OVC003 None
2018-01-20 01:00 25 21 19 85 240° 5 - 29.71 29.74 1 OVC004 None
2018-01-20 00:35 25 21 18 85 220° 6 - 29.72 - 2 OVC004 None
2018-01-20 00:34 25 21 18 85 220° 6 - 29.72 - 2 OVC005 None
2018-01-20 00:21 25 21 17 85 230° 7 - 29.72 - 1 -FZDZ OVC005 None
2018-01-20 00:19 25 21 19 85 230° 5 - 29.72 - 1 -FZDZ OVC004 None
2018-01-20 00:11 25 21 17 85 230° 7 - 29.72 - 1 -FZDZ OVC004 None
2018-01-20 00:00 25 21 18 85 230° 6 - 29.73 29.76 1 -FZDZ OVC005 None
2018-01-19 23:50 25 21 18 85 240° 6 - 29.74 - 1 -FZDZ OVC005 None
2018-01-19 23:41 25 21 18 85 250° 6 - 29.74 - 1 -FZDZ OVC006 None
2018-01-19 23:12 25 21 19 85 230° 5 - 29.75 - 2 -SN OVC008 None
2018-01-19 23:04 25 21 19 85 230° 5 - 29.74 - 2 OVC007 None
2018-01-19 23:00 25 21 19 85 240° 5 - 29.74 29.77 3 OVC007 None
2018-01-19 22:04 25 21 19 85 210° 5 - 29.73 - 3 OVC008 None
2018-01-19 22:00 25 21 19 85 210° 5 - 29.73 29.77 2 OVC007 OVC018 None
2018-01-19 21:00 25 21 18 85 220° 6 - 29.76 29.79 2 OVC007 OVC029 None
2018-01-19 20:00 25 21 - 85 - Calm - 29.76 29.80 2 OVC007 None
2018-01-19 19:00 23 19 - 85 - Calm - 29.77 29.81 2 -SN BR OVC007 None
2018-01-19 18:00 23 19 18 85 260° 3 - 29.79 29.83 2 -SN BR OVC009 None
2018-01-19 17:00 21 19 15 92 260° 5 - 29.81 29.85 2 -SN BR OVC008 None
2018-01-19 16:00 21 19 - 92 - Calm - 29.83 29.87 2 -SN BR OVC006 None

Support USWX by starting your Amazon purchase here.